sensor_id;sensor_type;location;lat;lon;timestamp;pressure;altitude;pressure_sealevel;temperature;humidity
49102;BME280;34913;47.520;19.186;2023-02-18T00:00:03;100128.38;;;11.99;69.48
49102;BME280;34913;47.520;19.186;2023-02-18T00:02:29;100112.69;;;11.96;69.85
49102;BME280;34913;47.520;19.186;2023-02-18T00:04:54;100108.13;;;12.08;69.80
49102;BME280;34913;47.520;19.186;2023-02-18T00:07:19;100112.34;;;12.11;69.80
49102;BME280;34913;47.520;19.186;2023-02-18T00:09:45;100099.78;;;12.22;69.72
49102;BME280;34913;47.520;19.186;2023-02-18T00:12:10;100105.13;;;12.32;69.56
49102;BME280;34913;47.520;19.186;2023-02-18T00:14:35;100097.03;;;12.34;69.31
49102;BME280;34913;47.520;19.186;2023-02-18T00:17:00;100107.78;;;12.32;69.55
49102;BME280;34913;47.520;19.186;2023-02-18T00:19:26;100102.34;;;12.34;69.85
49102;BME280;34913;47.520;19.186;2023-02-18T00:21:51;100091.16;;;12.40;69.81
49102;BME280;34913;47.520;19.186;2023-02-18T00:24:16;100090.75;;;12.44;69.44
49102;BME280;34913;47.520;19.186;2023-02-18T00:26:42;100098.75;;;12.54;69.75
49102;BME280;34913;47.520;19.186;2023-02-18T00:29:08;100091.66;;;12.64;69.11
49102;BME280;34913;47.520;19.186;2023-02-18T00:31:34;100083.91;;;12.61;69.02
49102;BME280;34913;47.520;19.186;2023-02-18T00:34:00;100094.31;;;12.64;69.20
49102;BME280;34913;47.520;19.186;2023-02-18T00:36:26;100085.75;;;12.61;69.50
49102;BME280;34913;47.520;19.186;2023-02-18T00:38:52;100079.84;;;12.57;69.55
49102;BME280;34913;47.520;19.186;2023-02-18T00:41:18;100085.88;;;12.59;69.37
49102;BME280;34913;47.520;19.186;2023-02-18T00:43:44;100080.94;;;12.54;69.80
49102;BME280;34913;47.520;19.186;2023-02-18T00:46:09;100078.59;;;12.71;69.19
49102;BME280;34913;47.520;19.186;2023-02-18T00:48:35;100078.19;;;12.75;68.91
49102;BME280;34913;47.520;19.186;2023-02-18T00:51:01;100090.38;;;12.78;68.56
49102;BME280;34913;47.520;19.186;2023-02-18T00:53:27;100081.69;;;12.76;68.88
49102;BME280;34913;47.520;19.186;2023-02-18T00:55:52;100091.78;;;12.72;69.05
49102;BME280;34913;47.520;19.186;2023-02-18T00:58:18;100114.94;;;12.81;68.36
49102;BME280;34913;47.520;19.186;2023-02-18T01:00:43;100081.28;;;12.90;68.27
49102;BME280;34913;47.520;19.186;2023-02-18T01:03:08;100077.50;;;12.83;68.57
49102;BME280;34913;47.520;19.186;2023-02-18T01:05:34;100077.50;;;12.73;68.75
49102;BME280;34913;47.520;19.186;2023-02-18T01:07:59;100080.31;;;12.72;68.78
49102;BME280;34913;47.520;19.186;2023-02-18T01:10:25;100081.69;;;12.85;68.19
49102;BME280;34913;47.520;19.186;2023-02-18T01:12:50;100082.81;;;12.83;68.62
49102;BME280;34913;47.520;19.186;2023-02-18T01:15:16;100077.06;;;12.78;68.83
49102;BME280;34913;47.520;19.186;2023-02-18T01:17:41;100068.53;;;12.84;68.28
49102;BME280;34913;47.520;19.186;2023-02-18T01:20:07;100082.28;;;12.89;68.01
49102;BME280;34913;47.520;19.186;2023-02-18T01:22:33;100071.91;;;12.96;67.72
49102;BME280;34913;47.520;19.186;2023-02-18T01:24:58;100068.38;;;12.85;68.24
49102;BME280;34913;47.520;19.186;2023-02-18T01:27:27;100067.53;;;12.95;67.69
49102;BME280;34913;47.520;19.186;2023-02-18T01:29:53;100070.78;;;12.89;68.13
49102;BME280;34913;47.520;19.186;2023-02-18T01:32:18;100068.13;;;12.89;68.16
49102;BME280;34913;47.520;19.186;2023-02-18T01:34:47;100063.78;;;12.97;67.64
49102;BME280;34913;47.520;19.186;2023-02-18T01:37:12;100061.09;;;12.97;67.62
49102;BME280;34913;47.520;19.186;2023-02-18T01:39:38;100054.78;;;12.98;67.65
49102;BME280;34913;47.520;19.186;2023-02-18T01:42:03;100051.13;;;12.99;67.37
49102;BME280;34913;47.520;19.186;2023-02-18T01:44:29;100056.03;;;12.94;67.81
49102;BME280;34913;47.520;19.186;2023-02-18T01:46:54;100061.25;;;12.96;67.87
49102;BME280;34913;47.520;19.186;2023-02-18T01:51:49;100061.09;;;12.97;67.87
49102;BME280;34913;47.520;19.186;2023-02-18T01:59:11;100053.66;;;12.91;68.01
49102;BME280;34913;47.520;19.186;2023-02-18T02:01:37;100048.31;;;13.01;67.46
49102;BME280;34913;47.520;19.186;2023-02-18T02:04:03;100041.16;;;13.11;67.04
49102;BME280;34913;47.520;19.186;2023-02-18T02:06:28;100042.59;;;13.05;66.90
49102;BME280;34913;47.520;19.186;2023-02-18T02:08:54;100043.28;;;13.07;67.02
49102;BME280;34913;47.520;19.186;2023-02-18T02:11:48;100026.44;;;13.07;66.96
49102;BME280;34913;47.520;19.186;2023-02-18T02:25:14;100016.34;;;13.30;65.57
49102;BME280;34913;47.520;19.186;2023-02-18T02:35:29;100003.69;;;13.51;64.33
49102;BME280;34913;47.520;19.186;2023-02-18T02:38:01;100015.56;;;13.57;64.37
49102;BME280;34913;47.520;19.186;2023-02-18T02:40:34;100006.56;;;13.58;63.95
49102;BME280;34913;47.520;19.186;2023-02-18T02:48:37;100007.72;;;13.55;63.86
49102;BME280;34913;47.520;19.186;2023-02-18T02:53:32;100010.22;;;13.57;63.74
49102;BME280;34913;47.520;19.186;2023-02-18T02:55:58;100034.09;;;13.58;64.20
49102;BME280;34913;47.520;19.186;2023-02-18T02:58:23;100005.72;;;13.67;63.58
49102;BME280;34913;47.520;19.186;2023-02-18T03:11:19;100029.63;;;13.49;64.08
49102;BME280;34913;47.520;19.186;2023-02-18T03:18:40;100039.56;;;13.57;64.08
49102;BME280;34913;47.520;19.186;2023-02-18T03:21:09;100044.38;;;13.53;64.01
49102;BME280;34913;47.520;19.186;2023-02-18T03:23:41;100039.75;;;13.46;64.83
49102;BME280;34913;47.520;19.186;2023-02-18T03:26:08;100040.88;;;13.43;64.76
49102;BME280;34913;47.520;19.186;2023-02-18T03:28:34;100045.22;;;13.44;64.58
49102;BME280;34913;47.520;19.186;2023-02-18T03:31:07;100053.09;;;13.36;65.14
49102;BME280;34913;47.520;19.186;2023-02-18T03:33:36;100054.22;;;13.43;64.44
49102;BME280;34913;47.520;19.186;2023-02-18T03:36:03;100050.84;;;13.41;64.68
49102;BME280;34913;47.520;19.186;2023-02-18T03:38:43;100051.97;;;13.38;64.88
49102;BME280;34913;47.520;19.186;2023-02-18T03:41:09;100070.06;;;13.45;64.45
49102;BME280;34913;47.520;19.186;2023-02-18T03:43:35;100070.91;;;13.45;64.57
49102;BME280;34913;47.520;19.186;2023-02-18T03:46:00;100063.06;;;13.44;64.58
49102;BME280;34913;47.520;19.186;2023-02-18T03:48:26;100059.53;;;13.53;64.15
49102;BME280;34913;47.520;19.186;2023-02-18T03:50:51;100065.28;;;13.48;64.25
49102;BME280;34913;47.520;19.186;2023-02-18T03:53:17;100058.69;;;13.43;64.39
49102;BME280;34913;47.520;19.186;2023-02-18T03:55:42;100068.50;;;13.42;64.49
49102;BME280;34913;47.520;19.186;2023-02-18T03:58:07;100042.41;;;13.46;63.91
49102;BME280;34913;47.520;19.186;2023-02-18T04:00:32;100059.06;;;13.57;63.73
49102;BME280;34913;47.520;19.186;2023-02-18T04:02:58;100055.41;;;13.58;63.84
49102;BME280;34913;47.520;19.186;2023-02-18T04:05:23;100069.63;;;13.59;63.82
49102;BME280;34913;47.520;19.186;2023-02-18T04:07:48;100068.78;;;13.49;64.22
49102;BME280;34913;47.520;19.186;2023-02-18T04:10:14;100070.88;;;13.55;63.76
49102;BME280;34913;47.520;19.186;2023-02-18T04:12:39;100066.25;;;13.57;63.96
49102;BME280;34913;47.520;19.186;2023-02-18T04:15:04;100080.16;;;13.60;63.90
49102;BME280;34913;47.520;19.186;2023-02-18T04:17:30;100078.31;;;13.61;64.02
49102;BME280;34913;47.520;19.186;2023-02-18T04:19:56;100069.88;;;13.56;64.07
49102;BME280;34913;47.520;19.186;2023-02-18T04:22:21;100074.25;;;13.47;64.66
49102;BME280;34913;47.520;19.186;2023-02-18T04:24:46;100061.94;;;13.36;65.03
49102;BME280;34913;47.520;19.186;2023-02-18T04:27:11;100068.78;;;13.49;64.71
49102;BME280;34913;47.520;19.186;2023-02-18T04:29:37;100086.75;;;13.47;64.63
49102;BME280;34913;47.520;19.186;2023-02-18T04:32:02;100077.78;;;13.48;64.65
49102;BME280;34913;47.520;19.186;2023-02-18T04:34:27;100076.38;;;13.53;64.50
49102;BME280;34913;47.520;19.186;2023-02-18T04:36:53;100073.41;;;13.56;64.71
49102;BME280;34913;47.520;19.186;2023-02-18T04:39:18;100075.78;;;13.59;64.35
49102;BME280;34913;47.520;19.186;2023-02-18T04:41:43;100066.13;;;13.49;64.87
49102;BME280;34913;47.520;19.186;2023-02-18T04:44:08;100074.81;;;13.41;65.34
49102;BME280;34913;47.520;19.186;2023-02-18T04:46:34;100083.00;;;13.30;65.78
49102;BME280;34913;47.520;19.186;2023-02-18T04:49:00;100092.66;;;13.40;65.16
49102;BME280;34913;47.520;19.186;2023-02-18T04:51:25;100090.41;;;13.26;66.20
49102;BME280;34913;47.520;19.186;2023-02-18T04:53:50;100080.19;;;13.22;65.87
49102;BME280;34913;47.520;19.186;2023-02-18T04:56:16;100103.56;;;13.18;66.18
49102;BME280;34913;47.520;19.186;2023-02-18T04:58:41;100090.97;;;13.10;66.20
49102;BME280;34913;47.520;19.186;2023-02-18T05:01:06;100102.75;;;13.18;66.49
49102;BME280;34913;47.520;19.186;2023-02-18T05:03:32;100115.66;;;13.12;66.31
49102;BME280;34913;47.520;19.186;2023-02-18T05:05:57;100114.25;;;13.08;66.57
49102;BME280;34913;47.520;19.186;2023-02-18T05:08:23;100127.72;;;12.97;67.22
49102;BME280;34913;47.520;19.186;2023-02-18T05:10:48;100121.50;;;12.87;68.21
49102;BME280;34913;47.520;19.186;2023-02-18T05:13:14;100132.44;;;12.84;68.35
49102;BME280;34913;47.520;19.186;2023-02-18T05:15:39;100116.59;;;12.73;69.22
49102;BME280;34913;47.520;19.186;2023-02-18T05:18:05;100125.69;;;12.70;69.32
49102;BME280;34913;47.520;19.186;2023-02-18T05:20:31;100124.56;;;12.63;69.70
49102;BME280;34913;47.520;19.186;2023-02-18T05:22:56;100132.53;;;12.63;70.20
49102;BME280;34913;47.520;19.186;2023-02-18T05:25:21;100120.34;;;12.51;71.55
49102;BME280;34913;47.520;19.186;2023-02-18T05:27:47;100128.47;;;12.49;71.60
49102;BME280;34913;47.520;19.186;2023-02-18T05:30:12;100127.19;;;12.44;72.53
49102;BME280;34913;47.520;19.186;2023-02-18T05:32:37;100115.81;;;12.42;72.99
49102;BME280;34913;47.520;19.186;2023-02-18T05:35:03;100122.91;;;12.32;73.49
49102;BME280;34913;47.520;19.186;2023-02-18T05:37:28;100130.19;;;12.29;74.10
49102;BME280;34913;47.520;19.186;2023-02-18T05:39:53;100139.31;;;12.27;74.36
49102;BME280;34913;47.520;19.186;2023-02-18T05:42:19;100144.63;;;12.27;74.59
49102;BME280;34913;47.520;19.186;2023-02-18T05:44:44;100143.19;;;12.23;75.00
49102;BME280;34913;47.520;19.186;2023-02-18T05:47:10;100157.78;;;12.28;74.92
49102;BME280;34913;47.520;19.186;2023-02-18T05:49:36;100161.25;;;12.19;75.48
49102;BME280;34913;47.520;19.186;2023-02-18T05:52:02;100166.53;;;12.10;75.70
49102;BME280;34913;47.520;19.186;2023-02-18T05:54:28;100173.09;;;12.06;76.23
49102;BME280;34913;47.520;19.186;2023-02-18T05:56:53;100183.03;;;12.04;76.52
49102;BME280;34913;47.520;19.186;2023-02-18T05:59:19;100169.13;;;12.00;76.70
49102;BME280;34913;47.520;19.186;2023-02-18T06:01:44;100187.31;;;11.95;76.89
49102;BME280;34913;47.520;19.186;2023-02-18T06:04:10;100185.41;;;12.07;75.84
49102;BME280;34913;47.520;19.186;2023-02-18T06:06:35;100182.19;;;12.03;76.24
49102;BME280;34913;47.520;19.186;2023-02-18T06:09:01;100190.88;;;12.05;76.23
49102;BME280;34913;47.520;19.186;2023-02-18T06:11:26;100186.25;;;12.07;75.62
49102;BME280;34913;47.520;19.186;2023-02-18T06:13:52;100191.66;;;11.96;75.85
49102;BME280;34913;47.520;19.186;2023-02-18T06:16:17;100197.81;;;11.96;76.14
49102;BME280;34913;47.520;19.186;2023-02-18T06:18:42;100208.97;;;11.90;76.10
49102;BME280;34913;47.520;19.186;2023-02-18T06:21:07;100213.22;;;11.93;76.28
49102;BME280;34913;47.520;19.186;2023-02-18T06:23:33;100225.63;;;11.92;75.99
49102;BME280;34913;47.520;19.186;2023-02-18T06:25:58;100214.28;;;11.90;76.17
49102;BME280;34913;47.520;19.186;2023-02-18T06:28:23;100223.59;;;11.96;75.83
49102;BME280;34913;47.520;19.186;2023-02-18T06:30:49;100222.28;;;11.90;76.09
49102;BME280;34913;47.520;19.186;2023-02-18T06:33:14;100224.38;;;11.87;77.21
49102;BME280;34913;47.520;19.186;2023-02-18T06:35:39;100225.22;;;11.87;77.34
49102;BME280;34913;47.520;19.186;2023-02-18T06:38:05;100221.63;;;11.77;77.76
49102;BME280;34913;47.520;19.186;2023-02-18T06:40:30;100226.19;;;11.75;77.71
49102;BME280;34913;47.520;19.186;2023-02-18T06:42:55;100227.03;;;11.75;77.26
49102;BME280;34913;47.520;19.186;2023-02-18T06:45:20;100227.31;;;11.72;77.29
49102;BME280;34913;47.520;19.186;2023-02-18T06:47:46;100220.75;;;11.77;77.40
49102;BME280;34913;47.520;19.186;2023-02-18T06:50:11;100229.34;;;11.69;77.56
49102;BME280;34913;47.520;19.186;2023-02-18T06:52:36;100221.72;;;11.75;77.21
49102;BME280;34913;47.520;19.186;2023-02-18T06:55:03;100217.22;;;11.87;76.50
49102;BME280;34913;47.520;19.186;2023-02-18T06:57:28;100224.50;;;11.85;76.95
49102;BME280;34913;47.520;19.186;2023-02-18T06:59:53;100229.75;;;11.96;76.37
49102;BME280;34913;47.520;19.186;2023-02-18T07:02:19;100232.72;;;12.03;75.77
49102;BME280;34913;47.520;19.186;2023-02-18T07:04:44;100241.94;;;11.99;75.95
49102;BME280;34913;47.520;19.186;2023-02-18T07:07:10;100227.78;;;11.98;76.28
49102;BME280;34913;47.520;19.186;2023-02-18T07:09:36;100231.09;;;11.91;76.62
49102;BME280;34913;47.520;19.186;2023-02-18T07:12:01;100238.56;;;11.97;76.51
49102;BME280;34913;47.520;19.186;2023-02-18T07:14:26;100233.81;;;12.00;76.88
49102;BME280;34913;47.520;19.186;2023-02-18T07:16:52;100236.56;;;12.10;76.90
49102;BME280;34913;47.520;19.186;2023-02-18T07:19:17;100237.00;;;12.15;77.06
49102;BME280;34913;47.520;19.186;2023-02-18T07:21:43;100238.25;;;12.11;77.76
49102;BME280;34913;47.520;19.186;2023-02-18T07:24:08;100249.22;;;12.18;77.60
49102;BME280;34913;47.520;19.186;2023-02-18T07:26:33;100245.16;;;12.23;77.32
49102;BME280;34913;47.520;19.186;2023-02-18T07:28:58;100247.63;;;12.15;78.09
49102;BME280;34913;47.520;19.186;2023-02-18T07:31:24;100250.91;;;12.19;78.21
49102;BME280;34913;47.520;19.186;2023-02-18T07:33:49;100245.44;;;12.20;77.81
49102;BME280;34913;47.520;19.186;2023-02-18T07:36:14;100253.88;;;12.25;77.82
49102;BME280;34913;47.520;19.186;2023-02-18T07:38:41;100241.75;;;12.33;77.16
49102;BME280;34913;47.520;19.186;2023-02-18T07:41:11;100250.56;;;12.33;77.35
49102;BME280;34913;47.520;19.186;2023-02-18T07:43:37;100237.44;;;12.41;76.06
49102;BME280;34913;47.520;19.186;2023-02-18T07:46:04;100238.97;;;12.44;76.54
49102;BME280;34913;47.520;19.186;2023-02-18T07:48:29;100235.53;;;12.53;76.27
49102;BME280;34913;47.520;19.186;2023-02-18T07:50:55;100236.00;;;12.68;75.40
49102;BME280;34913;47.520;19.186;2023-02-18T07:53:20;100233.50;;;12.76;74.91
49102;BME280;34913;47.520;19.186;2023-02-18T07:55:45;100230.53;;;12.69;74.58
49102;BME280;34913;47.520;19.186;2023-02-18T07:58:16;100227.63;;;12.72;74.79
49102;BME280;34913;47.520;19.186;2023-02-18T08:00:41;100231.84;;;12.84;73.77
49102;BME280;34913;47.520;19.186;2023-02-18T08:03:06;100228.94;;;12.88;73.32
49102;BME280;34913;47.520;19.186;2023-02-18T08:05:32;100225.84;;;12.92;73.21
49102;BME280;34913;47.520;19.186;2023-02-18T08:07:57;100221.09;;;12.96;73.37
49102;BME280;34913;47.520;19.186;2023-02-18T08:10:22;100220.00;;;13.08;72.71
49102;BME280;34913;47.520;19.186;2023-02-18T08:12:48;100225.91;;;13.11;72.30
49102;BME280;34913;47.520;19.186;2023-02-18T08:15:13;100236.47;;;13.32;71.42
49102;BME280;34913;47.520;19.186;2023-02-18T08:17:38;100238.03;;;13.54;70.43
49102;BME280;34913;47.520;19.186;2023-02-18T08:20:04;100240.16;;;13.60;70.74
49102;BME280;34913;47.520;19.186;2023-02-18T08:22:30;100239.28;;;13.40;71.34
49102;BME280;34913;47.520;19.186;2023-02-18T08:24:55;100239.97;;;13.43;70.78
49102;BME280;34913;47.520;19.186;2023-02-18T08:27:21;100239.59;;;13.47;70.52
49102;BME280;34913;47.520;19.186;2023-02-18T08:29:47;100240.84;;;13.43;71.04
49102;BME280;34913;47.520;19.186;2023-02-18T08:32:12;100218.50;;;13.34;70.89
49102;BME280;34913;47.520;19.186;2023-02-18T08:34:37;100233.81;;;13.32;71.49
49102;BME280;34913;47.520;19.186;2023-02-18T08:37:03;100237.59;;;13.39;71.33
49102;BME280;34913;47.520;19.186;2023-02-18T08:39:32;100241.41;;;13.37;70.84
49102;BME280;34913;47.520;19.186;2023-02-18T08:41:57;100234.78;;;13.31;71.15
49102;BME280;34913;47.520;19.186;2023-02-18T08:44:23;100240.28;;;13.39;70.72
49102;BME280;34913;47.520;19.186;2023-02-18T08:46:48;100237.59;;;13.49;70.23
49102;BME280;34913;47.520;19.186;2023-02-18T08:49:13;100232.44;;;13.48;70.42
49102;BME280;34913;47.520;19.186;2023-02-18T08:51:39;100235.94;;;13.38;70.96
49102;BME280;34913;47.520;19.186;2023-02-18T08:54:04;100237.75;;;13.48;70.20
49102;BME280;34913;47.520;19.186;2023-02-18T08:56:29;100239.44;;;13.49;70.41
49102;BME280;34913;47.520;19.186;2023-02-18T08:58:56;100214.19;;;13.53;70.31
49102;BME280;34913;47.520;19.186;2023-02-18T09:01:22;100232.00;;;13.33;70.00
49102;BME280;34913;47.520;19.186;2023-02-18T09:03:47;100235.94;;;13.29;70.19
49102;BME280;34913;47.520;19.186;2023-02-18T09:06:13;100238.88;;;13.45;70.02
49102;BME280;34913;47.520;19.186;2023-02-18T09:08:38;100226.41;;;13.55;69.63
49102;BME280;34913;47.520;19.186;2023-02-18T09:11:04;100228.66;;;13.60;68.63
49102;BME280;34913;47.520;19.186;2023-02-18T09:13:29;100228.06;;;13.66;68.65
49102;BME280;34913;47.520;19.186;2023-02-18T09:15:59;100228.78;;;13.78;68.19
49102;BME280;34913;47.520;19.186;2023-02-18T09:18:24;100233.84;;;13.90;67.72
49102;BME280;34913;47.520;19.186;2023-02-18T09:20:50;100236.91;;;13.95;67.73
49102;BME280;34913;47.520;19.186;2023-02-18T09:23:15;100224.38;;;14.06;67.10
49102;BME280;34913;47.520;19.186;2023-02-18T09:25:41;100214.97;;;14.11;66.56
49102;BME280;34913;47.520;19.186;2023-02-18T09:28:07;100218.91;;;13.97;67.44
49102;BME280;34913;47.520;19.186;2023-02-18T09:30:32;100212.03;;;13.95;67.31
49102;BME280;34913;47.520;19.186;2023-02-18T09:32:57;100213.56;;;13.97;66.77
49102;BME280;34913;47.520;19.186;2023-02-18T09:35:23;100216.25;;;13.97;66.72
49102;BME280;34913;47.520;19.186;2023-02-18T09:37:48;100217.50;;;14.03;66.90
49102;BME280;34913;47.520;19.186;2023-02-18T09:40:20;100220.75;;;13.97;66.95
49102;BME280;34913;47.520;19.186;2023-02-18T09:42:48;100223.13;;;14.00;67.18
49102;BME280;34913;47.520;19.186;2023-02-18T09:45:13;100218.88;;;14.17;67.00
49102;BME280;34913;47.520;19.186;2023-02-18T09:47:41;100213.50;;;14.27;66.04
49102;BME280;34913;47.520;19.186;2023-02-18T09:50:12;100227.25;;;14.41;66.20
49102;BME280;34913;47.520;19.186;2023-02-18T09:52:38;100218.75;;;14.65;65.42
49102;BME280;34913;47.520;19.186;2023-02-18T09:57:43;100227.84;;;15.00;64.27
49102;BME280;34913;47.520;19.186;2023-02-18T10:00:13;100224.59;;;15.24;63.83
49102;BME280;34913;47.520;19.186;2023-02-18T10:02:40;100237.53;;;15.46;62.24
49102;BME280;34913;47.520;19.186;2023-02-18T10:05:09;100229.84;;;15.61;61.26
49102;BME280;34913;47.520;19.186;2023-02-18T10:07:37;100233.28;;;15.71;60.74
49102;BME280;34913;47.520;19.186;2023-02-18T10:10:15;100229.56;;;15.64;61.22
49102;BME280;34913;47.520;19.186;2023-02-18T10:12:42;100221.63;;;15.45;62.17
49102;BME280;34913;47.520;19.186;2023-02-18T10:15:09;100227.31;;;15.42;62.25
49102;BME280;34913;47.520;19.186;2023-02-18T10:17:40;100221.31;;;15.30;63.05
49102;BME280;34913;47.520;19.186;2023-02-18T10:20:06;100218.28;;;15.43;62.46
49102;BME280;34913;47.520;19.186;2023-02-18T10:22:32;100213.31;;;15.30;62.76
49102;BME280;34913;47.520;19.186;2023-02-18T10:24:58;100213.97;;;15.14;62.42
49102;BME280;34913;47.520;19.186;2023-02-18T10:27:31;100212.56;;;14.92;63.76
49102;BME280;34913;47.520;19.186;2023-02-18T10:30:20;100218.84;;;14.73;64.20
49102;BME280;34913;47.520;19.186;2023-02-18T10:32:46;100218.31;;;14.70;64.59
49102;BME280;34913;47.520;19.186;2023-02-18T10:42:44;100215.88;;;14.30;63.31
49102;BME280;34913;47.520;19.186;2023-02-18T10:52:42;100206.41;;;13.98;66.06
49102;BME280;34913;47.520;19.186;2023-02-18T10:55:15;100200.50;;;14.04;67.31
49102;BME280;34913;47.520;19.186;2023-02-18T10:57:49;100197.16;;;13.92;67.69
49102;BME280;34913;47.520;19.186;2023-02-18T11:00:16;100185.91;;;13.89;68.35
49102;BME280;34913;47.520;19.186;2023-02-18T11:02:42;100204.47;;;13.90;68.97
49102;BME280;34913;47.520;19.186;2023-02-18T11:05:16;100197.44;;;13.99;69.29
49102;BME280;34913;47.520;19.186;2023-02-18T11:07:43;100196.03;;;13.95;69.86
49102;BME280;34913;47.520;19.186;2023-02-18T11:10:15;100187.31;;;14.03;69.93
49102;BME280;34913;47.520;19.186;2023-02-18T11:12:43;100189.69;;;13.96;69.44
49102;BME280;34913;47.520;19.186;2023-02-18T11:17:38;100176.69;;;13.64;68.61
49102;BME280;34913;47.520;19.186;2023-02-18T11:22:47;100164.06;;;13.66;67.31
49102;BME280;34913;47.520;19.186;2023-02-18T11:25:21;100173.63;;;13.68;67.16
49102;BME280;34913;47.520;19.186;2023-02-18T11:27:50;100164.91;;;13.76;66.74
49102;BME280;34913;47.520;19.186;2023-02-18T11:30:18;100157.59;;;13.78;66.92
49102;BME280;34913;47.520;19.186;2023-02-18T11:32:45;100159.44;;;13.68;67.87
49102;BME280;34913;47.520;19.186;2023-02-18T11:35:20;100160.97;;;13.71;68.27
49102;BME280;34913;47.520;19.186;2023-02-18T11:37:46;100160.97;;;13.71;67.95
49102;BME280;34913;47.520;19.186;2023-02-18T11:40:22;100161.66;;;13.73;68.45
49102;BME280;34913;47.520;19.186;2023-02-18T11:42:48;100156.31;;;13.73;69.01
49102;BME280;34913;47.520;19.186;2023-02-18T11:45:30;100153.00;;;13.61;70.11
49102;BME280;34913;47.520;19.186;2023-02-18T11:48:01;100141.16;;;13.73;69.49
49102;BME280;34913;47.520;19.186;2023-02-18T11:50:31;100140.88;;;13.66;70.45
49102;BME280;34913;47.520;19.186;2023-02-18T11:52:57;100143.72;;;13.75;70.72
49102;BME280;34913;47.520;19.186;2023-02-18T11:55:24;100139.91;;;13.77;71.29
49102;BME280;34913;47.520;19.186;2023-02-18T11:58:01;100133.81;;;13.94;70.20
49102;BME280;34913;47.520;19.186;2023-02-18T12:00:49;100126.28;;;14.17;69.20
49102;BME280;34913;47.520;19.186;2023-02-18T12:06:02;100110.31;;;14.72;67.32
49102;BME280;34913;47.520;19.186;2023-02-18T12:08:31;100098.22;;;14.68;67.72
49102;BME280;34913;47.520;19.186;2023-02-18T12:11:33;100092.75;;;14.70;67.11
49102;BME280;34913;47.520;19.186;2023-02-18T12:13:51;100083.19;;;14.67;67.35
49102;BME280;34913;47.520;19.186;2023-02-18T12:24:05;100069.47;;;14.62;68.00
49102;BME280;34913;47.520;19.186;2023-02-18T12:26:38;100065.09;;;14.61;67.78
49102;BME280;34913;47.520;19.186;2023-02-18T12:29:20;100067.53;;;14.55;68.56
49102;BME280;34913;47.520;19.186;2023-02-18T12:32:00;100060.97;;;14.49;68.90
49102;BME280;34913;47.520;19.186;2023-02-18T12:35:30;100061.47;;;14.52;68.34
49102;BME280;34913;47.520;19.186;2023-02-18T12:42:23;100033.34;;;14.76;67.46
49102;BME280;34913;47.520;19.186;2023-02-18T13:10:53;100010.28;;;15.36;59.28
49102;BME280;34913;47.520;19.186;2023-02-18T13:13:22;100000.00;;;15.50;58.84
49102;BME280;34913;47.520;19.186;2023-02-18T13:15:50;99994.72;;;15.58;58.37
49102;BME280;34913;47.520;19.186;2023-02-18T13:18:19;99999.78;;;15.69;57.31
49102;BME280;34913;47.520;19.186;2023-02-18T13:20:56;99991.13;;;15.75;57.20
49102;BME280;34913;47.520;19.186;2023-02-18T13:24:05;99981.78;;;15.79;57.31
49102;BME280;34913;47.520;19.186;2023-02-18T13:26:12;99975.75;;;15.77;56.72
49102;BME280;34913;47.520;19.186;2023-02-18T13:38:48;99955.34;;;15.76;57.51
49102;BME280;34913;47.520;19.186;2023-02-18T13:41:16;99955.97;;;15.70;57.71
49102;BME280;34913;47.520;19.186;2023-02-18T13:43:41;99948.16;;;15.77;57.70
49102;BME280;34913;47.520;19.186;2023-02-18T13:51:06;99951.47;;;15.71;57.86
49102;BME280;34913;47.520;19.186;2023-02-18T13:53:36;99937.25;;;15.70;56.98
49102;BME280;34913;47.520;19.186;2023-02-18T13:56:09;99922.69;;;15.65;57.22
49102;BME280;34913;47.520;19.186;2023-02-18T13:58:36;99928.34;;;15.61;57.03
49102;BME280;34913;47.520;19.186;2023-02-18T14:01:13;99930.50;;;15.58;57.53
49102;BME280;34913;47.520;19.186;2023-02-18T14:08:39;99907.81;;;15.70;56.99
49102;BME280;34913;47.520;19.186;2023-02-18T14:11:31;99912.34;;;15.70;57.24
49102;BME280;34913;47.520;19.186;2023-02-18T14:13:53;99903.31;;;15.71;57.01
49102;BME280;34913;47.520;19.186;2023-02-18T14:16:18;99883.47;;;15.55;58.74
49102;BME280;34913;47.520;19.186;2023-02-18T14:23:42;99876.13;;;15.49;60.49
49102;BME280;34913;47.520;19.186;2023-02-18T14:33:36;99870.50;;;15.26;61.37
49102;BME280;34913;47.520;19.186;2023-02-18T14:38:49;99875.06;;;15.34;59.97
49102;BME280;34913;47.520;19.186;2023-02-18T14:49:08;99876.56;;;15.36;61.20
49102;BME280;34913;47.520;19.186;2023-02-18T14:51:35;99866.34;;;15.32;60.90
49102;BME280;34913;47.520;19.186;2023-02-18T14:54:04;99856.63;;;15.31;61.20
49102;BME280;34913;47.520;19.186;2023-02-18T14:56:30;99853.97;;;15.31;61.33
49102;BME280;34913;47.520;19.186;2023-02-18T14:58:57;99847.31;;;15.35;60.95
49102;BME280;34913;47.520;19.186;2023-02-18T15:03:50;99845.28;;;15.29;61.30
49102;BME280;34913;47.520;19.186;2023-02-18T15:08:55;99841.16;;;15.08;62.21
49102;BME280;34913;47.520;19.186;2023-02-18T15:11:21;99844.69;;;15.09;62.83
49102;BME280;34913;47.520;19.186;2023-02-18T15:13:48;99844.31;;;15.04;62.78
49102;BME280;34913;47.520;19.186;2023-02-18T15:16:29;99843.50;;;15.03;62.93
49102;BME280;34913;47.520;19.186;2023-02-18T15:18:59;99852.72;;;15.09;62.78
49102;BME280;34913;47.520;19.186;2023-02-18T15:21:39;99847.16;;;15.02;59.99